createdAt,value
2022-12-08T00:01:54.766Z,8.85
2022-12-08T00:04:22.774Z,2.72
2022-12-08T00:07:08.208Z,0.82
2022-12-08T00:12:09.618Z,1.10
2022-12-08T00:14:39.662Z,2.97
2022-12-08T00:17:11.094Z,0.80
2022-12-08T00:19:40.068Z,1.55
2022-12-08T00:22:09.143Z,2.15
2022-12-08T00:24:39.615Z,0.80
2022-12-08T00:27:08.076Z,4.47
2022-12-08T00:29:35.948Z,1.67
2022-12-08T00:32:03.892Z,1.60
2022-12-08T00:34:33.796Z,2.17
2022-12-08T00:37:01.893Z,1.35
2022-12-08T00:39:29.778Z,3.05
2022-12-08T00:42:15.809Z,1.08
2022-12-08T00:44:45.392Z,0.80
2022-12-08T00:47:14.382Z,2.15
2022-12-08T00:49:43.685Z,1.33
2022-12-08T00:52:12.626Z,0.88
2022-12-08T00:54:40.497Z,1.40
2022-12-08T00:57:08.357Z,2.50
2022-12-08T00:59:36.227Z,1.05
2022-12-08T01:02:04.129Z,2.92
2022-12-08T01:04:32.200Z,1.20
2022-12-08T22:37:11.626Z,5.15
2022-12-08T22:39:39.566Z,8.88
2022-12-08T22:42:07.514Z,9.73
2022-12-08T22:44:35.554Z,9.80
2022-12-08T22:47:03.534Z,11.73
2022-12-08T22:49:31.682Z,10.27
2022-12-08T22:51:59.623Z,19.05
2022-12-08T22:54:28.869Z,12.73
2022-12-08T22:56:56.765Z,11.93
2022-12-08T22:59:24.905Z,11.48
2022-12-08T23:01:53.980Z,11.25
2022-12-08T23:04:22.054Z,16.05
2022-12-08T23:06:50.319Z,10.68
2022-12-08T23:09:18.283Z,11.38
2022-12-08T23:11:47.606Z,17.25
2022-12-08T23:14:15.638Z,16.13
2022-12-08T23:16:43.639Z,17.45
2022-12-08T23:19:12.407Z,15.32
2022-12-08T23:21:40.628Z,15.02
2022-12-08T23:24:08.669Z,14.00
2022-12-08T23:26:36.653Z,16.73
2022-12-08T23:29:06.298Z,14.68
2022-12-08T23:31:34.280Z,16.20
2022-12-08T23:34:03.521Z,18.23
2022-12-08T23:36:31.660Z,17.48
2022-12-08T23:38:59.736Z,19.40
2022-12-08T23:41:27.727Z,17.20
2022-12-08T23:43:55.966Z,15.07
2022-12-08T23:46:25.494Z,19.92
2022-12-08T23:48:53.724Z,23.90
2022-12-08T23:51:21.994Z,22.35
2022-12-08T23:53:50.018Z,24.55
2022-12-08T23:56:18.847Z,23.95
2022-12-08T23:58:46.827Z,22.33
